sensor_id;sensor_type;location;lat;lon;timestamp;pressure;altitude;pressure_sealevel;temperature;humidity
64158;BME280;50449;51.528;5.076;2023-03-14T00:01:16;98866.47;;;16.85;56.94
64158;BME280;50449;51.528;5.076;2023-03-14T00:03:42;98866.66;;;16.80;56.66
64158;BME280;50449;51.528;5.076;2023-03-14T00:06:09;98874.41;;;16.78;56.95
64158;BME280;50449;51.528;5.076;2023-03-14T00:08:35;98875.47;;;16.77;57.07
64158;BME280;50449;51.528;5.076;2023-03-14T00:11:21;98871.16;;;16.76;57.04
64158;BME280;50449;51.528;5.076;2023-03-14T00:13:48;98873.41;;;16.74;56.64
64158;BME280;50449;51.528;5.076;2023-03-14T00:16:13;98876.94;;;16.75;56.88
64158;BME280;50449;51.528;5.076;2023-03-14T00:18:39;98874.88;;;16.72;56.98
64158;BME280;50449;51.528;5.076;2023-03-14T00:21:07;98868.63;;;16.71;57.01
64158;BME280;50449;51.528;5.076;2023-03-14T00:23:34;98871.97;;;16.68;56.75
64158;BME280;50449;51.528;5.076;2023-03-14T00:26:05;98873.91;;;16.67;56.99
64158;BME280;50449;51.528;5.076;2023-03-14T00:28:31;98869.59;;;16.66;56.91
64158;BME280;50449;51.528;5.076;2023-03-14T00:30:56;98873.78;;;16.64;56.79
64158;BME280;50449;51.528;5.076;2023-03-14T00:33:22;98884.22;;;16.62;56.67
64158;BME280;50449;51.528;5.076;2023-03-14T00:35:58;98878.94;;;16.57;56.41
64158;BME280;50449;51.528;5.076;2023-03-14T00:38:25;98883.59;;;16.56;56.44
64158;BME280;50449;51.528;5.076;2023-03-14T00:40:54;98882.94;;;16.59;56.97
64158;BME280;50449;51.528;5.076;2023-03-14T00:43:20;98870.47;;;16.58;56.80
64158;BME280;50449;51.528;5.076;2023-03-14T00:45:51;98869.03;;;16.52;56.66
64158;BME280;50449;51.528;5.076;2023-03-14T00:48:17;98871.28;;;16.50;56.96
64158;BME280;50449;51.528;5.076;2023-03-14T00:50:43;98867.28;;;16.48;56.90
64158;BME280;50449;51.528;5.076;2023-03-14T00:53:09;98870.47;;;16.50;56.65
64158;BME280;50449;51.528;5.076;2023-03-14T00:55:39;98868.09;;;16.48;56.83
64158;BME280;50449;51.528;5.076;2023-03-14T00:58:05;98873.56;;;16.48;56.55
64158;BME280;50449;51.528;5.076;2023-03-14T01:00:31;98882.03;;;16.47;56.39
64158;BME280;50449;51.528;5.076;2023-03-14T01:02:57;98870.19;;;16.42;57.03
64158;BME280;50449;51.528;5.076;2023-03-14T01:05:23;98866.00;;;16.45;56.84
64158;BME280;50449;51.528;5.076;2023-03-14T01:07:48;98865.09;;;16.41;56.97
64158;BME280;50449;51.528;5.076;2023-03-14T01:10:13;98866.19;;;16.40;56.93
64158;BME280;50449;51.528;5.076;2023-03-14T01:12:39;98856.44;;;16.39;56.67
64158;BME280;50449;51.528;5.076;2023-03-14T01:15:05;98859.94;;;16.39;56.80
64158;BME280;50449;51.528;5.076;2023-03-14T01:17:30;98855.16;;;16.36;56.64
64158;BME280;50449;51.528;5.076;2023-03-14T01:19:56;98856.44;;;16.39;56.60
64158;BME280;50449;51.528;5.076;2023-03-14T01:22:21;98846.66;;;16.38;57.01
64158;BME280;50449;51.528;5.076;2023-03-14T01:24:47;98838.66;;;16.33;57.04
64158;BME280;50449;51.528;5.076;2023-03-14T01:27:12;98851.97;;;16.34;56.50
64158;BME280;50449;51.528;5.076;2023-03-14T01:29:38;98853.09;;;16.33;56.84
64158;BME280;50449;51.528;5.076;2023-03-14T01:32:03;98850.81;;;16.35;56.88
64158;BME280;50449;51.528;5.076;2023-03-14T01:34:29;98853.88;;;16.34;56.87
64158;BME280;50449;51.528;5.076;2023-03-14T01:36:54;98842.03;;;16.30;56.65
64158;BME280;50449;51.528;5.076;2023-03-14T01:39:19;98830.81;;;16.31;56.57
64158;BME280;50449;51.528;5.076;2023-03-14T01:41:45;98836.28;;;16.31;56.79
64158;BME280;50449;51.528;5.076;2023-03-14T01:44:11;98840.94;;;16.31;56.73
64158;BME280;50449;51.528;5.076;2023-03-14T01:46:41;98840.94;;;16.31;56.35
64158;BME280;50449;51.528;5.076;2023-03-14T01:57:28;98832.78;;;16.22;56.70
64158;BME280;50449;51.528;5.076;2023-03-14T02:00:03;98825.75;;;16.21;56.65
64158;BME280;50449;51.528;5.076;2023-03-14T02:02:30;98834.22;;;16.19;56.98
64158;BME280;50449;51.528;5.076;2023-03-14T02:04:56;98818.69;;;16.20;56.80
64158;BME280;50449;51.528;5.076;2023-03-14T02:07:42;98822.84;;;16.17;56.82
64158;BME280;50449;51.528;5.076;2023-03-14T02:10:11;98821.25;;;16.16;56.65
64158;BME280;50449;51.528;5.076;2023-03-14T02:12:37;98819.69;;;16.15;56.50
64158;BME280;50449;51.528;5.076;2023-03-14T02:15:04;98820.00;;;16.14;56.97
64158;BME280;50449;51.528;5.076;2023-03-14T02:17:30;98809.88;;;16.14;56.95
64158;BME280;50449;51.528;5.076;2023-03-14T02:20:03;98814.53;;;16.14;56.68
64158;BME280;50449;51.528;5.076;2023-03-14T02:22:31;98800.13;;;16.13;56.54
64158;BME280;50449;51.528;5.076;2023-03-14T02:27:47;98801.59;;;16.11;56.93
64158;BME280;50449;51.528;5.076;2023-03-14T02:30:32;98795.66;;;16.09;56.54
64158;BME280;50449;51.528;5.076;2023-03-14T02:33:10;98797.59;;;16.08;56.97
64158;BME280;50449;51.528;5.076;2023-03-14T02:35:59;98797.91;;;16.07;56.92
64158;BME280;50449;51.528;5.076;2023-03-14T02:38:55;98801.28;;;16.04;56.70
64158;BME280;50449;51.528;5.076;2023-03-14T02:41:23;98809.28;;;16.00;56.76
64158;BME280;50449;51.528;5.076;2023-03-14T02:43:48;98799.53;;;15.99;56.96
64158;BME280;50449;51.528;5.076;2023-03-14T02:46:17;98802.25;;;15.99;57.01
64158;BME280;50449;51.528;5.076;2023-03-14T02:48:51;98784.78;;;16.00;57.00
64158;BME280;50449;51.528;5.076;2023-03-14T02:51:19;98793.78;;;16.00;57.25
64158;BME280;50449;51.528;5.076;2023-03-14T02:53:45;98785.63;;;16.00;56.60
64158;BME280;50449;51.528;5.076;2023-03-14T02:56:10;98800.34;;;15.99;57.04
64158;BME280;50449;51.528;5.076;2023-03-14T02:58:36;98797.13;;;15.97;56.98
64158;BME280;50449;51.528;5.076;2023-03-14T03:01:01;98791.38;;;15.99;56.66
64158;BME280;50449;51.528;5.076;2023-03-14T03:03:27;98794.09;;;15.99;56.90
64158;BME280;50449;51.528;5.076;2023-03-14T03:05:54;98797.59;;;15.99;56.94
64158;BME280;50449;51.528;5.076;2023-03-14T03:08:22;98790.09;;;15.96;56.90
64158;BME280;50449;51.528;5.076;2023-03-14T03:10:48;98792.50;;;15.98;57.11
64158;BME280;50449;51.528;5.076;2023-03-14T03:13:13;98799.84;;;15.97;56.61
64158;BME280;50449;51.528;5.076;2023-03-14T03:15:39;98795.53;;;15.96;57.07
64158;BME280;50449;51.528;5.076;2023-03-14T03:18:06;98795.22;;;15.98;56.76
64158;BME280;50449;51.528;5.076;2023-03-14T03:20:31;98793.63;;;15.97;56.69
64158;BME280;50449;51.528;5.076;2023-03-14T03:22:58;98799.41;;;15.95;57.08
64158;BME280;50449;51.528;5.076;2023-03-14T03:25:23;98792.34;;;15.94;57.13
64158;BME280;50449;51.528;5.076;2023-03-14T03:27:49;98777.16;;;15.93;56.99
64158;BME280;50449;51.528;5.076;2023-03-14T03:30:15;98765.78;;;15.91;56.94
64158;BME280;50449;51.528;5.076;2023-03-14T03:32:40;98772.50;;;15.94;56.45
64158;BME280;50449;51.528;5.076;2023-03-14T03:35:06;98771.69;;;15.93;56.80
64158;BME280;50449;51.528;5.076;2023-03-14T03:37:33;98774.72;;;15.92;56.70
64158;BME280;50449;51.528;5.076;2023-03-14T03:39:58;98775.88;;;15.91;56.52
64158;BME280;50449;51.528;5.076;2023-03-14T03:42:27;98775.41;;;15.89;56.70
64158;BME280;50449;51.528;5.076;2023-03-14T03:44:52;98780.53;;;15.90;57.05
64158;BME280;50449;51.528;5.076;2023-03-14T03:47:17;98776.97;;;15.90;56.74
64158;BME280;50449;51.528;5.076;2023-03-14T03:49:43;98771.88;;;15.88;56.97
64158;BME280;50449;51.528;5.076;2023-03-14T03:52:08;98774.59;;;15.88;56.59
64158;BME280;50449;51.528;5.076;2023-03-14T03:54:34;98771.72;;;15.85;56.96
64158;BME280;50449;51.528;5.076;2023-03-14T03:57:00;98785.31;;;15.85;56.59
64158;BME280;50449;51.528;5.076;2023-03-14T03:59:25;98779.88;;;15.85;56.78
64158;BME280;50449;51.528;5.076;2023-03-14T04:01:51;98787.25;;;15.84;56.79
64158;BME280;50449;51.528;5.076;2023-03-14T04:04:16;98774.63;;;15.79;56.66
64158;BME280;50449;51.528;5.076;2023-03-14T04:06:44;98781.19;;;15.78;56.64
64158;BME280;50449;51.528;5.076;2023-03-14T04:09:10;98779.25;;;15.79;56.78
64158;BME280;50449;51.528;5.076;2023-03-14T04:11:36;98772.25;;;15.78;56.56
64158;BME280;50449;51.528;5.076;2023-03-14T04:14:02;98771.75;;;15.76;57.06
64158;BME280;50449;51.528;5.076;2023-03-14T04:16:27;98772.91;;;15.75;57.10
64158;BME280;50449;51.528;5.076;2023-03-14T04:18:53;98777.19;;;15.76;57.05
64158;BME280;50449;51.528;5.076;2023-03-14T04:21:19;98772.06;;;15.74;56.77
64158;BME280;50449;51.528;5.076;2023-03-14T04:23:44;98777.38;;;15.71;56.81
64158;BME280;50449;51.528;5.076;2023-03-14T04:26:10;98774.66;;;15.71;56.92
64158;BME280;50449;51.528;5.076;2023-03-14T04:28:36;98773.84;;;15.70;56.67
64158;BME280;50449;51.528;5.076;2023-03-14T04:31:14;98778.47;;;15.70;56.92
64158;BME280;50449;51.528;5.076;2023-03-14T04:33:40;98778.97;;;15.72;56.55
64158;BME280;50449;51.528;5.076;2023-03-14T04:36:06;98770.31;;;15.70;56.97
64158;BME280;50449;51.528;5.076;2023-03-14T04:38:32;98762.97;;;15.70;57.12
64158;BME280;50449;51.528;5.076;2023-03-14T04:40:58;98752.38;;;15.69;56.93
64158;BME280;50449;51.528;5.076;2023-03-14T04:43:24;98753.19;;;15.69;57.06
64158;BME280;50449;51.528;5.076;2023-03-14T04:45:51;98746.44;;;15.67;56.76
64158;BME280;50449;51.528;5.076;2023-03-14T04:48:16;98744.06;;;15.65;56.97
64158;BME280;50449;51.528;5.076;2023-03-14T04:50:42;98747.91;;;15.64;57.11
64158;BME280;50449;51.528;5.076;2023-03-14T04:53:07;98756.41;;;15.63;56.75
64158;BME280;50449;51.528;5.076;2023-03-14T04:55:33;98756.72;;;15.61;57.05
64158;BME280;50449;51.528;5.076;2023-03-14T04:57:59;98747.75;;;15.61;56.88
64158;BME280;50449;51.528;5.076;2023-03-14T05:00:25;98748.88;;;15.59;56.86
64158;BME280;50449;51.528;5.076;2023-03-14T05:02:50;98747.28;;;15.58;56.82
64158;BME280;50449;51.528;5.076;2023-03-14T05:05:16;98742.63;;;15.59;56.79
64158;BME280;50449;51.528;5.076;2023-03-14T05:07:41;98748.88;;;15.59;57.01
64158;BME280;50449;51.528;5.076;2023-03-14T05:10:07;98758.66;;;15.61;56.56
64158;BME280;50449;51.528;5.076;2023-03-14T05:12:33;98754.31;;;15.59;57.10
64158;BME280;50449;51.528;5.076;2023-03-14T05:14:58;98754.66;;;15.58;56.92
64158;BME280;50449;51.528;5.076;2023-03-14T05:17:24;98745.22;;;15.55;56.89
64158;BME280;50449;51.528;5.076;2023-03-14T05:19:49;98749.88;;;15.55;56.64
64158;BME280;50449;51.528;5.076;2023-03-14T05:22:14;98744.72;;;15.53;57.02
64158;BME280;50449;51.528;5.076;2023-03-14T05:24:40;98742.81;;;15.54;57.09
64158;BME280;50449;51.528;5.076;2023-03-14T05:27:05;98736.25;;;15.55;56.60
64158;BME280;50449;51.528;5.076;2023-03-14T05:29:31;98741.69;;;15.55;56.64
64158;BME280;50449;51.528;5.076;2023-03-14T05:31:56;98727.63;;;15.53;56.68
64158;BME280;50449;51.528;5.076;2023-03-14T05:34:21;98735.78;;;15.53;57.05
64158;BME280;50449;51.528;5.076;2023-03-14T05:36:47;98718.66;;;15.52;56.97
64158;BME280;50449;51.528;5.076;2023-03-14T05:39:12;98731.78;;;15.50;56.69
64158;BME280;50449;51.528;5.076;2023-03-14T05:41:37;98719.28;;;15.49;57.21
64158;BME280;50449;51.528;5.076;2023-03-14T05:44:03;98716.91;;;15.48;57.03
64158;BME280;50449;51.528;5.076;2023-03-14T05:46:28;98719.16;;;15.46;57.33
64158;BME280;50449;51.528;5.076;2023-03-14T05:48:56;98724.28;;;15.47;56.86
64158;BME280;50449;51.528;5.076;2023-03-14T05:51:22;98719.16;;;15.46;56.94
64158;BME280;50449;51.528;5.076;2023-03-14T05:53:47;98721.06;;;15.45;56.84
64158;BME280;50449;51.528;5.076;2023-03-14T05:56:13;98723.78;;;15.45;57.24
64158;BME280;50449;51.528;5.076;2023-03-14T05:58:38;98731.16;;;15.45;56.94
64158;BME280;50449;51.528;5.076;2023-03-14T06:01:05;98723.78;;;15.45;57.11
64158;BME280;50449;51.528;5.076;2023-03-14T06:03:31;98724.09;;;15.44;56.76
64158;BME280;50449;51.528;5.076;2023-03-14T06:05:56;98722.84;;;15.41;57.25
64158;BME280;50449;51.528;5.076;2023-03-14T06:08:22;98727.16;;;15.42;56.75
64158;BME280;50449;51.528;5.076;2023-03-14T06:10:47;98729.06;;;15.42;57.04
64158;BME280;50449;51.528;5.076;2023-03-14T06:13:13;98722.84;;;15.41;56.93
64158;BME280;50449;51.528;5.076;2023-03-14T06:15:40;98726.69;;;15.40;56.76
64158;BME280;50449;51.528;5.076;2023-03-14T06:18:06;98732.13;;;15.40;56.95
64158;BME280;50449;51.528;5.076;2023-03-14T06:20:31;98728.94;;;15.38;57.21
64158;BME280;50449;51.528;5.076;2023-03-14T06:22:58;98725.41;;;15.38;57.13
64158;BME280;50449;51.528;5.076;2023-03-14T06:25:23;98722.69;;;15.38;57.09
64158;BME280;50449;51.528;5.076;2023-03-14T06:27:49;98729.25;;;15.36;57.33
64158;BME280;50449;51.528;5.076;2023-03-14T06:30:14;98731.97;;;15.36;56.66
64158;BME280;50449;51.528;5.076;2023-03-14T06:32:39;98732.31;;;15.35;57.12
64158;BME280;50449;51.528;5.076;2023-03-14T06:35:05;98731.47;;;15.34;57.26
64158;BME280;50449;51.528;5.076;2023-03-14T06:37:30;98733.41;;;15.34;57.09
64158;BME280;50449;51.528;5.076;2023-03-14T06:39:56;98735.34;;;15.33;56.93
64158;BME280;50449;51.528;5.076;2023-03-14T06:42:22;98747.00;;;15.34;56.92
64158;BME280;50449;51.528;5.076;2023-03-14T06:44:47;98744.94;;;15.31;56.98
64158;BME280;50449;51.528;5.076;2023-03-14T06:47:13;98743.81;;;15.32;57.29
64158;BME280;50449;51.528;5.076;2023-03-14T06:49:38;98743.34;;;15.30;57.18
64158;BME280;50449;51.528;5.076;2023-03-14T06:52:04;98764.28;;;15.29;56.92
64158;BME280;50449;51.528;5.076;2023-03-14T06:54:29;98760.63;;;15.25;57.27
64158;BME280;50449;51.528;5.076;2023-03-14T06:56:55;98770.38;;;15.26;57.18
64158;BME280;50449;51.528;5.076;2023-03-14T06:59:20;98773.09;;;15.26;56.92
64158;BME280;50449;51.528;5.076;2023-03-14T07:01:45;98775.84;;;15.18;57.23
64158;BME280;50449;51.528;5.076;2023-03-14T07:04:11;98801.28;;;15.13;57.72
64158;BME280;50449;51.528;5.076;2023-03-14T07:06:36;98861.22;;;14.99;58.21
64158;BME280;50449;51.528;5.076;2023-03-14T07:09:02;98874.84;;;15.08;57.84
64158;BME280;50449;51.528;5.076;2023-03-14T07:11:28;98886.69;;;15.03;57.65
64158;BME280;50449;51.528;5.076;2023-03-14T07:13:53;98888.75;;;15.06;57.81
64158;BME280;50449;51.528;5.076;2023-03-14T07:16:19;98897.41;;;15.08;57.52
64158;BME280;50449;51.528;5.076;2023-03-14T07:18:45;98903.97;;;15.07;57.54
64158;BME280;50449;51.528;5.076;2023-03-14T07:21:10;98928.25;;;15.04;57.79
64158;BME280;50449;51.528;5.076;2023-03-14T07:23:35;98940.13;;;15.08;57.75
64158;BME280;50449;51.528;5.076;2023-03-14T07:26:01;98937.88;;;15.10;57.79
64158;BME280;50449;51.528;5.076;2023-03-14T07:28:27;98948.75;;;15.10;57.47
64158;BME280;50449;51.528;5.076;2023-03-14T07:30:53;98957.22;;;15.08;57.25
64158;BME280;50449;51.528;5.076;2023-03-14T07:33:19;98965.88;;;15.10;57.03
64158;BME280;50449;51.528;5.076;2023-03-14T07:35:47;98981.88;;;15.12;56.96
64158;BME280;50449;51.528;5.076;2023-03-14T07:38:13;98985.41;;;15.12;57.50
64158;BME280;50449;51.528;5.076;2023-03-14T07:40:38;98994.66;;;15.11;57.32
64158;BME280;50449;51.528;5.076;2023-03-14T07:43:04;98998.22;;;15.12;57.17
64158;BME280;50449;51.528;5.076;2023-03-14T07:45:29;99009.88;;;15.12;56.94
64158;BME280;50449;51.528;5.076;2023-03-14T07:47:54;99020.25;;;15.10;57.05
64158;BME280;50449;51.528;5.076;2023-03-14T07:50:23;99028.25;;;15.07;56.99
64158;BME280;50449;51.528;5.076;2023-03-14T07:52:49;99039.44;;;15.05;56.97
64158;BME280;50449;51.528;5.076;2023-03-14T07:55:17;99038.94;;;15.03;57.24
64158;BME280;50449;51.528;5.076;2023-03-14T07:57:42;99049.81;;;15.03;56.88
64158;BME280;50449;51.528;5.076;2023-03-14T08:00:08;99074.28;;;15.03;56.92
64158;BME280;50449;51.528;5.076;2023-03-14T08:02:34;99085.00;;;15.00;57.22
64158;BME280;50449;51.528;5.076;2023-03-14T08:05:01;99087.03;;;14.94;57.36
64158;BME280;50449;51.528;5.076;2023-03-14T08:07:26;99093.47;;;14.98;57.04
64158;BME280;50449;51.528;5.076;2023-03-14T08:09:52;99101.63;;;14.98;57.13
64158;BME280;50449;51.528;5.076;2023-03-14T08:12:17;99108.19;;;14.97;57.00
64158;BME280;50449;51.528;5.076;2023-03-14T08:14:43;99112.31;;;14.95;57.07
64158;BME280;50449;51.528;5.076;2023-03-14T08:17:08;99120.16;;;14.96;57.01
64158;BME280;50449;51.528;5.076;2023-03-14T08:19:34;99132.94;;;14.96;56.94
64158;BME280;50449;51.528;5.076;2023-03-14T08:22:00;99137.91;;;14.93;57.02
64158;BME280;50449;51.528;5.076;2023-03-14T08:24:25;99149.56;;;14.94;56.93
64158;BME280;50449;51.528;5.076;2023-03-14T08:26:50;99157.25;;;14.92;56.81
64158;BME280;50449;51.528;5.076;2023-03-14T08:29:16;99155.63;;;14.91;57.04
64158;BME280;50449;51.528;5.076;2023-03-14T08:31:41;99169.84;;;14.88;57.00
64158;BME280;50449;51.528;5.076;2023-03-14T08:34:07;99172.69;;;14.83;57.03
64158;BME280;50449;51.528;5.076;2023-03-14T08:36:32;99185.16;;;14.84;57.07
64158;BME280;50449;51.528;5.076;2023-03-14T08:38:58;99190.31;;;14.85;57.08
64158;BME280;50449;51.528;5.076;2023-03-14T08:41:24;99201.19;;;14.85;56.99
64158;BME280;50449;51.528;5.076;2023-03-14T08:43:49;99212.34;;;14.84;57.13
64158;BME280;50449;51.528;5.076;2023-03-14T08:46:14;99216.97;;;14.83;56.94
64158;BME280;50449;51.528;5.076;2023-03-14T08:48:40;99235.22;;;14.83;56.73
64158;BME280;50449;51.528;5.076;2023-03-14T08:51:09;99236.34;;;14.82;56.97
64158;BME280;50449;51.528;5.076;2023-03-14T08:53:36;99241.78;;;14.82;56.77
64158;BME280;50449;51.528;5.076;2023-03-14T08:56:02;99259.97;;;14.81;56.73
64158;BME280;50449;51.528;5.076;2023-03-14T08:58:28;99260.81;;;14.82;56.61
64158;BME280;50449;51.528;5.076;2023-03-14T09:00:54;99265.75;;;14.80;56.68
64158;BME280;50449;51.528;5.076;2023-03-14T09:03:20;99270.66;;;14.78;56.86
64158;BME280;50449;51.528;5.076;2023-03-14T09:05:48;99290.00;;;14.76;57.24
64158;BME280;50449;51.528;5.076;2023-03-14T09:08:14;99297.66;;;14.74;56.89
64158;BME280;50449;51.528;5.076;2023-03-14T09:10:39;99301.78;;;14.71;56.99
64158;BME280;50449;51.528;5.076;2023-03-14T09:13:05;99307.53;;;14.70;57.18
64158;BME280;50449;51.528;5.076;2023-03-14T09:15:30;99331.19;;;14.69;56.98
64158;BME280;50449;51.528;5.076;2023-03-14T09:17:55;99343.16;;;14.68;56.87
64158;BME280;50449;51.528;5.076;2023-03-14T09:20:21;99356.84;;;14.63;57.04
64158;BME280;50449;51.528;5.076;2023-03-14T09:22:46;99369.47;;;14.59;57.16
64158;BME280;50449;51.528;5.076;2023-03-14T09:25:12;99382.44;;;14.62;57.16
64158;BME280;50449;51.528;5.076;2023-03-14T09:27:37;99393.31;;;14.62;56.97
64158;BME280;50449;51.528;5.076;2023-03-14T09:30:03;99406.38;;;14.60;57.35
64158;BME280;50449;51.528;5.076;2023-03-14T09:32:30;99415.34;;;14.61;56.76
64158;BME280;50449;51.528;5.076;2023-03-14T09:34:56;99431.97;;;14.59;57.04
64158;BME280;50449;51.528;5.076;2023-03-14T09:37:22;99454.28;;;14.56;57.00
64158;BME280;50449;51.528;5.076;2023-03-14T09:39:47;99461.50;;;14.47;57.29
64158;BME280;50449;51.528;5.076;2023-03-14T09:42:14;99468.53;;;14.48;57.09
64158;BME280;50449;51.528;5.076;2023-03-14T09:44:54;99476.41;;;14.49;57.15
64158;BME280;50449;51.528;5.076;2023-03-14T09:47:21;99485.16;;;14.46;56.78
64158;BME280;50449;51.528;5.076;2023-03-14T09:49:48;99492.19;;;14.47;56.78
64158;BME280;50449;51.528;5.076;2023-03-14T09:52:23;99504.97;;;14.47;56.71
64158;BME280;50449;51.528;5.076;2023-03-14T09:54:53;99521.28;;;14.47;57.06
64158;BME280;50449;51.528;5.076;2023-03-14T09:57:23;99528.31;;;14.48;56.60
64158;BME280;50449;51.528;5.076;2023-03-14T09:59:50;99534.34;;;14.45;57.03
64158;BME280;50449;51.528;5.076;2023-03-14T10:02:18;99543.00;;;14.47;56.71
64158;BME280;50449;51.528;5.076;2023-03-14T10:04:45;99562.31;;;14.45;56.96
64158;BME280;50449;51.528;5.076;2023-03-14T10:07:13;99565.03;;;14.45;56.77
64158;BME280;50449;51.528;5.076;2023-03-14T10:09:42;99584.06;;;14.45;57.05
64158;BME280;50449;51.528;5.076;2023-03-14T10:12:08;99598.75;;;14.44;56.91
64158;BME280;50449;51.528;5.076;2023-03-14T10:14:37;99597.63;;;14.45;56.93
64158;BME280;50449;51.528;5.076;2023-03-14T10:17:11;99619.38;;;14.45;56.71
64158;BME280;50449;51.528;5.076;2023-03-14T10:19:44;99633.28;;;14.44;57.14
64158;BME280;50449;51.528;5.076;2023-03-14T10:22:16;99646.69;;;14.35;56.87
64158;BME280;50449;51.528;5.076;2023-03-14T10:24:46;99649.63;;;14.39;56.90
64158;BME280;50449;51.528;5.076;2023-03-14T10:27:20;99659.41;;;14.40;57.02
64158;BME280;50449;51.528;5.076;2023-03-14T10:29:58;99666.50;;;14.36;56.81
64158;BME280;50449;51.528;5.076;2023-03-14T10:32:38;99680.41;;;14.34;56.59
64158;BME280;50449;51.528;5.076;2023-03-14T10:35:11;99677.78;;;14.29;56.61
64158;BME280;50449;51.528;5.076;2023-03-14T10:37:54;99689.19;;;14.26;56.64
64158;BME280;50449;51.528;5.076;2023-03-14T10:40:26;99706.81;;;14.28;56.47
64158;BME280;50449;51.528;5.076;2023-03-14T10:42:52;99712.78;;;14.31;56.59
64158;BME280;50449;51.528;5.076;2023-03-14T10:45:36;99724.75;;;14.29;56.53
64158;BME280;50449;51.528;5.076;2023-03-14T10:48:18;99742.66;;;14.31;56.28
64158;BME280;50449;51.528;5.076;2023-03-14T10:53:47;99754.31;;;14.31;56.57
64158;BME280;50449;51.528;5.076;2023-03-14T10:56:21;99757.03;;;14.31;56.51
64158;BME280;50449;51.528;5.076;2023-03-14T10:58:49;99774.72;;;14.28;56.33
64158;BME280;50449;51.528;5.076;2023-03-14T11:03:49;99798.09;;;14.29;56.80
64158;BME280;50449;51.528;5.076;2023-03-14T11:06:33;99811.94;;;14.28;56.62
64158;BME280;50449;51.528;5.076;2023-03-14T11:11:31;99823.19;;;14.21;56.77
64158;BME280;50449;51.528;5.076;2023-03-14T11:17:29;99849.88;;;14.14;56.81
64158;BME280;50449;51.528;5.076;2023-03-14T11:28:37;99885.13;;;14.19;56.45
64158;BME280;50449;51.528;5.076;2023-03-14T11:33:37;99893.81;;;14.21;56.24
64158;BME280;50449;51.528;5.076;2023-03-14T11:36:10;99908.78;;;14.19;56.42
64158;BME280;50449;51.528;5.076;2023-03-14T11:38:48;99903.34;;;14.19;56.38
64158;BME280;50449;51.528;5.076;2023-03-14T11:41:20;99913.63;;;14.22;56.37
64158;BME280;50449;51.528;5.076;2023-03-14T11:43:49;99928.59;;;14.19;56.76
64158;BME280;50449;51.528;5.076;2023-03-14T11:46:23;99938.88;;;14.22;56.28
64158;BME280;50449;51.528;5.076;2023-03-14T11:48:58;99955.75;;;14.19;56.08
64158;BME280;50449;51.528;5.076;2023-03-14T11:51:33;99954.69;;;14.15;56.58
64158;BME280;50449;51.528;5.076;2023-03-14T11:54:20;99972.31;;;14.18;56.25
64158;BME280;50449;51.528;5.076;2023-03-14T11:56:57;99965.28;;;14.17;56.49
64158;BME280;50449;51.528;5.076;2023-03-14T12:02:25;99977.16;;;14.21;56.36
64158;BME280;50449;51.528;5.076;2023-03-14T12:05:05;99989.38;;;14.23;56.19
64158;BME280;50449;51.528;5.076;2023-03-14T12:10:15;99987.75;;;14.22;56.19
64158;BME280;50449;51.528;5.076;2023-03-14T12:12:41;99989.38;;;14.23;56.28
64158;BME280;50449;51.528;5.076;2023-03-14T12:15:18;99986.66;;;14.23;56.08
64158;BME280;50449;51.528;5.076;2023-03-14T12:17:44;99998.34;;;14.24;56.13
64158;BME280;50449;51.528;5.076;2023-03-14T12:22:44;100012.25;;;14.17;55.87
64158;BME280;50449;51.528;5.076;2023-03-14T12:30:39;100027.47;;;14.13;55.43
64158;BME280;50449;51.528;5.076;2023-03-14T12:35:47;100029.97;;;14.10;55.25
64158;BME280;50449;51.528;5.076;2023-03-14T12:43:45;100037.53;;;14.13;55.37
64158;BME280;50449;51.528;5.076;2023-03-14T12:48:44;100055.47;;;14.14;55.45
64158;BME280;50449;51.528;5.076;2023-03-14T12:51:16;100082.63;;;14.14;55.14
64158;BME280;50449;51.528;5.076;2023-03-14T12:54:03;100078.31;;;14.07;54.87
64158;BME280;50449;51.528;5.076;2023-03-14T12:59:30;100072.84;;;14.13;54.57
64158;BME280;50449;51.528;5.076;2023-03-14T13:02:00;100080.72;;;14.14;54.31
64158;BME280;50449;51.528;5.076;2023-03-14T13:04:29;100089.16;;;14.13;54.37
64158;BME280;50449;51.528;5.076;2023-03-14T13:06:58;100101.94;;;14.07;54.60
64158;BME280;50449;51.528;5.076;2023-03-14T13:12:03;100116.59;;;14.11;54.34
64158;BME280;50449;51.528;5.076;2023-03-14T13:14:33;100122.03;;;14.11;54.29
64158;BME280;50449;51.528;5.076;2023-03-14T13:17:02;100129.66;;;14.09;54.15
64158;BME280;50449;51.528;5.076;2023-03-14T13:19:28;100116.34;;;14.07;54.22
64158;BME280;50449;51.528;5.076;2023-03-14T13:22:06;100130.19;;;14.06;53.99
64158;BME280;50449;51.528;5.076;2023-03-14T13:24:34;100128.56;;;14.05;53.60
64158;BME280;50449;51.528;5.076;2023-03-14T13:27:00;100137.78;;;14.09;53.71
64158;BME280;50449;51.528;5.076;2023-03-14T13:29:32;100151.38;;;14.09;53.67
64158;BME280;50449;51.528;5.076;2023-03-14T13:32:00;100151.41;;;14.04;53.62
64158;BME280;50449;51.528;5.076;2023-03-14T13:34:33;100159.28;;;14.00;53.95
64158;BME280;50449;51.528;5.076;2023-03-14T13:36:59;100170.41;;;14.04;54.08
64158;BME280;50449;51.528;5.076;2023-03-14T13:39:26;100178.25;;;14.05;53.73
64158;BME280;50449;51.528;5.076;2023-03-14T13:42:00;100167.94;;;14.07;54.04
64158;BME280;50449;51.528;5.076;2023-03-14T13:44:30;100198.94;;;14.01;53.84
64158;BME280;50449;51.528;5.076;2023-03-14T13:47:00;100207.59;;;14.03;53.71
64158;BME280;50449;51.528;5.076;2023-03-14T13:49:27;100211.41;;;14.02;53.53
64158;BME280;50449;51.528;5.076;2023-03-14T13:51:54;100216.59;;;13.99;53.08
64158;BME280;50449;51.528;5.076;2023-03-14T13:54:21;100225.00;;;14.02;53.68
64158;BME280;50449;51.528;5.076;2023-03-14T13:56:47;100237.22;;;14.00;52.70
64158;BME280;50449;51.528;5.076;2023-03-14T13:59:25;100258.91;;;14.05;52.95
64158;BME280;50449;51.528;5.076;2023-03-14T14:01:52;100251.34;;;13.97;53.63
64158;BME280;50449;51.528;5.076;2023-03-14T14:04:19;100263.28;;;13.96;53.32
64158;BME280;50449;51.528;5.076;2023-03-14T14:06:53;100285.56;;;13.98;52.56